createdAt,value
2017-09-11T00:04:33.810Z,71.00
2017-09-11T00:09:35.625Z,69.60
2017-09-11T00:14:37.298Z,69.20
2017-09-11T00:19:38.971Z,67.50
2017-09-11T00:24:40.643Z,67.00
2017-09-11T00:29:42.316Z,66.60
2017-09-11T00:34:44.195Z,67.40
2017-09-11T00:39:46.562Z,67.90
2017-09-11T00:44:50.725Z,67.80
2017-09-11T00:49:53.103Z,68.10
2017-09-11T00:54:54.796Z,68.00
2017-09-11T00:59:56.449Z,68.30
2017-09-11T01:04:58.328Z,67.40
2017-09-11T01:10:00.204Z,67.00
2017-09-11T01:15:02.052Z,66.70
2017-09-11T01:20:04.962Z,65.70
2017-09-11T01:25:06.860Z,65.80
2017-09-11T01:30:09.351Z,65.90
2017-09-11T01:35:10.979Z,66.40
2017-09-11T01:40:12.673Z,66.30
2017-09-11T01:45:14.554Z,66.20
2017-09-11T01:50:16.246Z,66.40
2017-09-11T01:55:17.864Z,66.60
2017-09-11T02:00:19.540Z,66.30
2017-09-11T02:05:21.237Z,66.10
2017-09-11T02:10:22.924Z,66.20
2017-09-11T02:15:24.610Z,66.00
2017-09-11T02:20:26.461Z,66.60
2017-09-11T02:25:28.108Z,66.30
2017-09-11T02:30:30.038Z,66.40
2017-09-11T02:35:32.965Z,66.00
2017-09-11T02:40:49.211Z,66.10
2017-09-11T02:46:05.769Z,65.70
2017-09-11T02:51:22.409Z,65.40
2017-09-11T02:56:39.467Z,65.60
2017-09-11T03:01:56.232Z,66.10
2017-09-11T03:07:12.895Z,66.40
2017-09-11T03:12:29.440Z,66.50
2017-09-11T03:17:46.499Z,66.80
2017-09-11T03:22:48.822Z,67.40
2017-09-11T03:27:50.605Z,67.20
2017-09-11T03:32:53.142Z,67.30
2017-09-11T03:37:54.933Z,67.10
2017-09-11T03:42:56.588Z,67.60
2017-09-11T03:47:58.316Z,67.50
2017-09-11T03:52:59.941Z,67.50
2017-09-11T03:58:02.641Z,68.10
2017-09-11T04:03:04.303Z,68.50
2017-09-11T04:08:07.013Z,68.30
2017-09-11T04:13:08.784Z,68.00
2017-09-11T04:18:10.497Z,67.90
2017-09-11T04:23:12.124Z,68.50
2017-09-11T04:28:13.804Z,67.80
2017-09-11T04:33:15.488Z,67.40
2017-09-11T04:38:17.139Z,67.20
2017-09-11T04:43:18.862Z,67.40
2017-09-11T04:48:20.492Z,66.90
2017-09-11T04:53:22.259Z,66.90
2017-09-11T04:58:23.932Z,66.70
2017-09-11T05:03:25.609Z,66.90
2017-09-11T05:08:27.285Z,67.30
2017-09-11T05:13:28.956Z,66.60
2017-09-11T05:18:30.636Z,67.00
2017-09-11T05:23:32.308Z,67.10
2017-09-11T05:28:33.990Z,65.90
2017-09-11T05:33:35.700Z,66.80
2017-09-11T05:38:37.312Z,66.20
2017-09-11T05:43:39.004Z,66.30
2017-09-11T05:48:40.782Z,69.20
2017-09-11T05:53:42.501Z,71.00
2017-09-11T05:58:44.241Z,72.00
2017-09-11T06:03:45.885Z,72.00
2017-09-11T06:08:47.556Z,78.40
2017-09-11T06:13:49.884Z,88.00
2017-09-11T06:18:52.756Z,98.80
2017-09-11T06:23:54.570Z,98.10
2017-09-11T06:28:56.246Z,99.90
2017-09-11T06:33:57.918Z,99.90
2017-09-11T06:38:59.571Z,99.90
2017-09-11T06:44:01.204Z,99.90
2017-09-11T06:49:02.884Z,99.90
2017-09-11T06:54:04.608Z,99.50
2017-09-11T06:59:06.281Z,93.60
2017-09-11T07:04:07.953Z,94.30
2017-09-11T07:09:10.393Z,92.70
2017-09-11T07:14:12.937Z,89.20
2017-09-11T07:19:14.608Z,91.90
2017-09-11T07:24:16.285Z,88.20
2017-09-11T07:29:18.516Z,89.30
2017-09-11T07:34:20.244Z,91.90
2017-09-11T07:39:22.019Z,99.90
2017-09-11T07:44:23.627Z,99.90
2017-09-11T07:49:25.333Z,99.90
2017-09-11T07:54:27.035Z,99.90
2017-09-11T07:59:28.810Z,99.90
2017-09-11T08:04:33.759Z,99.90
2017-09-11T08:09:36.455Z,99.90
2017-09-11T08:14:40.180Z,99.90
2017-09-11T08:19:43.491Z,99.90
2017-09-11T08:24:46.129Z,99.90
2017-09-11T08:29:47.860Z,99.90
2017-09-11T08:34:49.530Z,99.90
2017-09-11T08:39:51.154Z,99.90
2017-09-11T08:44:52.876Z,99.90
2017-09-11T08:49:54.520Z,99.90
2017-09-11T08:54:56.192Z,99.90
2017-09-11T08:59:57.893Z,99.90
2017-09-11T09:04:59.565Z,99.50
2017-09-11T09:10:02.265Z,99.30
2017-09-11T09:15:05.270Z,95.90
2017-09-11T09:20:07.041Z,97.10
2017-09-11T09:25:08.694Z,99.90
2017-09-11T09:30:10.336Z,99.90
2017-09-11T09:35:12.033Z,99.90
2017-09-11T09:40:13.732Z,99.90
2017-09-11T09:45:16.636Z,99.90
2017-09-11T09:50:18.305Z,99.90
2017-09-11T09:55:20.021Z,99.90
2017-09-11T10:00:22.137Z,99.90
2017-09-11T10:05:24.962Z,99.90
2017-09-11T10:10:26.636Z,99.90
2017-09-11T10:15:29.306Z,99.90
2017-09-11T10:20:31.106Z,98.30
2017-09-11T10:25:33.802Z,98.50
2017-09-11T10:30:36.213Z,97.90
2017-09-11T10:35:38.070Z,95.60
2017-09-11T10:40:39.745Z,95.60
2017-09-11T10:45:42.440Z,93.80
2017-09-11T10:50:44.420Z,94.20
2017-09-11T10:55:46.170Z,88.90
2017-09-11T11:00:47.867Z,80.20
2017-09-11T11:05:49.477Z,78.30
2017-09-11T11:10:51.205Z,75.10
2017-09-11T11:15:53.857Z,71.20
2017-09-11T11:20:55.528Z,71.90
2017-09-11T11:25:57.200Z,69.60
2017-09-11T11:30:58.868Z,69.60
2017-09-11T11:36:00.641Z,69.50
2017-09-11T11:41:02.334Z,67.40
2017-09-11T11:46:04.001Z,69.60
2017-09-11T11:51:05.773Z,68.90
2017-09-11T11:56:07.449Z,69.50
2017-09-11T12:01:09.224Z,69.30
2017-09-11T12:06:10.881Z,68.40
2017-09-11T12:11:12.560Z,68.40
2017-09-11T12:16:14.236Z,65.10
2017-09-11T12:21:15.917Z,65.80
2017-09-11T12:26:18.749Z,65.50
2017-09-11T12:31:20.501Z,63.20
2017-09-11T12:36:23.960Z,62.90
2017-09-11T12:41:25.726Z,62.90
2017-09-11T12:46:27.698Z,60.80
2017-09-11T12:51:29.333Z,58.30
2017-09-11T12:56:30.997Z,57.90
2017-09-11T13:01:32.664Z,58.00
2017-09-11T13:06:34.372Z,57.20
2017-09-11T13:11:36.029Z,55.20
2017-09-11T13:16:37.685Z,53.00
2017-09-11T13:21:39.349Z,51.20
2017-09-11T13:26:41.023Z,53.40
2017-09-11T13:31:42.692Z,50.50
2017-09-11T13:36:44.273Z,48.80
2017-09-11T13:41:46.027Z,50.70
2017-09-11T13:46:47.559Z,50.50
2017-09-11T13:51:49.312Z,52.70
2017-09-11T13:57:26.451Z,51.80
2017-09-11T14:02:28.008Z,55.20
2017-09-11T14:07:29.809Z,55.00
2017-09-11T14:12:32.499Z,53.20
2017-09-11T14:17:34.105Z,50.30
2017-09-11T14:22:35.825Z,50.60
2017-09-11T14:27:37.462Z,51.10
2017-09-11T14:32:39.148Z,55.50
2017-09-11T14:37:41.838Z,57.60
2017-09-11T14:42:43.496Z,57.00
2017-09-11T14:47:45.210Z,58.40
2017-09-11T14:52:47.565Z,56.10
2017-09-11T14:57:49.286Z,56.10
2017-09-11T15:02:50.958Z,58.00
2017-09-11T15:07:52.623Z,58.60
2017-09-11T15:12:54.301Z,58.60
2017-09-11T15:17:55.938Z,57.90
2017-09-11T15:22:57.637Z,58.60
2017-09-11T15:28:00.012Z,59.10
2017-09-11T15:33:02.488Z,59.40
2017-09-11T15:38:04.412Z,60.70
2017-09-11T15:43:06.083Z,62.40
2017-09-11T15:48:07.829Z,61.90
2017-09-11T15:53:10.861Z,62.40
2017-09-11T15:58:13.176Z,62.40
2017-09-11T16:03:15.261Z,61.00
2017-09-11T16:08:18.523Z,60.70
2017-09-11T16:13:20.168Z,61.20
2017-09-11T16:18:22.090Z,58.50
2017-09-11T16:23:23.968Z,57.10
2017-09-11T16:28:25.643Z,54.10
2017-09-11T16:33:27.315Z,51.50
2017-09-11T16:38:28.945Z,50.30
2017-09-11T16:43:30.660Z,51.40
2017-09-11T16:48:33.561Z,51.90
2017-09-11T16:53:35.287Z,52.10
2017-09-11T16:58:38.241Z,52.10
2017-09-11T17:03:40.386Z,52.30
2017-09-11T17:08:42.150Z,53.50
2017-09-11T17:13:43.849Z,54.50
2017-09-11T17:18:45.517Z,55.40
2017-09-11T17:23:47.216Z,55.80
2017-09-11T17:28:48.925Z,56.30
2017-09-11T17:33:50.596Z,56.40
2017-09-11T17:38:52.542Z,56.70
2017-09-11T17:43:54.219Z,54.50
2017-09-11T17:48:57.088Z,55.50
2017-09-11T17:53:59.408Z,57.00
2017-09-11T17:59:01.128Z,57.80
2017-09-11T18:04:02.794Z,58.40
2017-09-11T18:09:04.700Z,58.70
2017-09-11T18:14:07.094Z,57.40
2017-09-11T18:19:09.201Z,57.40
2017-09-11T18:24:11.693Z,56.50
2017-09-11T18:29:16.121Z,56.20
2017-09-11T18:34:18.212Z,56.10
2017-09-11T18:39:21.022Z,55.30
2017-09-11T18:44:24.527Z,55.50
2017-09-11T18:49:27.065Z,56.70
2017-09-11T18:54:30.437Z,57.40
2017-09-11T18:59:32.992Z,56.90
2017-09-11T19:04:35.797Z,57.50
2017-09-11T19:09:37.726Z,57.80
2017-09-11T19:14:39.808Z,58.30
2017-09-11T19:19:41.972Z,58.70
2017-09-11T19:24:45.281Z,58.80
2017-09-11T19:29:47.965Z,59.10
2017-09-11T19:34:50.271Z,59.60
2017-09-11T19:39:51.861Z,60.60
2017-09-11T19:44:54.841Z,61.00
2017-09-11T19:49:56.896Z,61.20
2017-09-11T19:55:01.053Z,61.20
2017-09-11T20:00:02.697Z,61.60
2017-09-11T20:05:04.602Z,61.70
2017-09-11T20:10:07.129Z,62.50
2017-09-11T20:15:09.790Z,62.80
2017-09-11T20:20:12.039Z,62.80
2017-09-11T20:25:14.226Z,63.40
2017-09-11T20:30:17.838Z,63.60
2017-09-11T20:35:20.579Z,64.00
2017-09-11T20:40:24.504Z,63.90
2017-09-11T20:45:27.167Z,64.30
2017-09-11T20:50:28.816Z,64.40
2017-09-11T20:55:30.495Z,64.60
2017-09-11T21:00:32.688Z,64.40
2017-09-11T21:05:34.374Z,63.50
2017-09-11T21:10:36.055Z,63.70
2017-09-11T21:15:38.465Z,63.40
2017-09-11T21:20:40.137Z,63.30
2017-09-11T21:25:42.788Z,62.60
2017-09-11T21:30:44.476Z,62.50
2017-09-11T21:35:47.202Z,62.00
2017-09-11T21:40:48.795Z,61.70
2017-09-11T21:45:51.369Z,61.30
2017-09-11T21:50:55.087Z,61.50
2017-09-11T21:55:56.713Z,61.90
2017-09-11T22:00:58.407Z,62.30
2017-09-11T22:06:00.076Z,62.50
2017-09-11T22:11:02.677Z,63.60
2017-09-11T22:16:04.580Z,63.50
2017-09-11T22:21:06.229Z,63.10
2017-09-11T22:26:08.126Z,63.10
2017-09-11T22:31:10.230Z,63.80
2017-09-11T22:36:12.092Z,64.00
2017-09-11T22:41:13.737Z,64.20
2017-09-11T22:46:18.833Z,64.60
2017-09-11T22:51:20.586Z,64.80
2017-09-11T22:56:22.483Z,65.40
2017-09-11T23:01:24.096Z,65.50
2017-09-11T23:06:27.009Z,66.00
2017-09-11T23:11:28.710Z,65.90
2017-09-11T23:16:30.386Z,66.30
2017-09-11T23:21:31.988Z,66.40
2017-09-11T23:26:33.908Z,66.80
2017-09-11T23:31:35.642Z,67.30
2017-09-11T23:36:37.263Z,68.30
2017-09-11T23:41:39.976Z,68.60
2017-09-11T23:46:41.721Z,67.50
2017-09-11T23:51:43.423Z,67.40
2017-09-11T23:56:45.098Z,67.50
